Listado único de aspirantes (Periodo de valoración 31 octubre de 2019)


* Listado ordenado por el total Autobaremo. Recuerde que también puede ordenarlo por Apellidos, Nombre

Listado único de aspirantes admitidos en promoción interna en la bolsa de selección de personal estatutario temporal, categoría: Enfermero/a Especialista en Enfermería Pediátrica
Apellidos, Nombre Exp. SAS Auto. Exp. NO SAS Auto. Form. Auto. otros méritos Total Auto. Exp. SAS Baremo Exp. NO SAS Baremo Form. Baremo Otros méritos Punt. Total Baremo Fecha Act.
MORENO SALMERON, MARIA DEL PILAR 6,000 3,450 37,000 13,100 56,100 6,000 0,250 31,000 1,500 38,500 01/02/2021
CORREA CASADO, MARIA DEL MAR 6,000 0,000 37,000 10,225 53,225 6,000 0,000 17,050 1,400 24,450 01/02/2021
NIEVAS ESCORIZA, Mª ANGUSTIAS 6,000 0,450 43,000 2,600 51,600 6,000 0,250 5,200 0,200 11,400 01/02/2021
MORCILLO MOLINA, CARMEN 6,000 0,000 40,000 3,400 49,400 6,000 0,000 9,400 0,300 15,700 01/02/2021
CRISTÓBAL CAÑADAS, DELIA 6,000 3,300 37,000 3,350 46,350 6,000 3,300 16,650 1,600 24,250 01/02/2021
GOMEZ RODRIGUEZ, MARIA ANGELA 6,000 6,000 40,000 0,000 46,000 6,000 3,050 11,300 0,000 17,300 01/02/2021
MARTINEZ SANCHEZ, ROSA MARIA 6,000 0,250 37,000 2,000 45,000 6,000 0,250 33,000 1,200 40,200 01/02/2021
REAL DE LA CRUZ, MARIA DEL PILAR 6,000 2,400 31,000 4,900 44,300 6,000 0,000 8,550 0,375 14,925 01/02/2021
GALLARDO CABRALES, SUSANA 6,000 0,400 37,000 0,400 43,400 6,000 0,000 1,200 0,100 7,300 01/02/2021
JIMÉNEZ LIRIA, MARÍA ISABEL 6,000 0,200 36,000 1,200 43,200 6,000 0,000 20,000 0,000 26,000 01/02/2021
MARTIN PEREZ, ANA CRISTINA 6,000 0,000 37,000 0,000 43,000 6,000 0,000 1,000 0,000 7,000 01/02/2021
SALVADOR BLANES, BELÉN 6,000 0,000 37,000 0,000 43,000 6,000 0,000 1,000 0,000 7,000 01/02/2021
LARA GARCIA, ISABEL 6,000 0,650 35,000 0,975 41,975 6,000 0,650 2,100 0,050 8,150 01/02/2021
IBAÑEZ GONZALEZ, FRANCISCA 6,000 0,000 35,000 0,625 41,625 6,000 0,000 1,000 0,000 7,000 01/02/2021
BACA VERA, GERTRUDIS 6,000 3,250 31,000 4,300 41,300 6,000 0,000 2,300 0,000 8,300 01/02/2021
PÉREZ RAMOS, FRANCISCO JOSÉ 6,000 0,000 31,000 4,250 41,250 6,000 0,000 1,000 0,000 7,000 01/02/2021
TEJERO CHAMORRO, CANDIDA 6,000 0,000 34,000 1,200 41,200 6,000 0,000 16,250 0,000 22,250 01/02/2021
MOYA LÓPEZ, MARIA DOLORES 6,000 0,000 35,000 0,050 41,050 6,000 0,000 4,800 0,000 10,800 01/02/2021
CABRERA RUEDA, DAVID JESÚS 6,000 0,000 33,000 2,000 41,000 6,000 0,000 3,750 0,400 10,150 01/02/2021
FLORES CARABALLO, JESÚS MARÍA 6,000 0,000 34,000 0,500 40,500 6,000 0,000 22,350 0,200 28,550 01/02/2021
AYALA ORTEGA, MARIA NIEVES 6,000 0,000 34,000 0,050 40,050 6,000 0,000 3,500 0,000 9,500 01/02/2021
DEL AGUILA SOLA DEL AGUILA SOLA, FRANCISCA 6,000 0,000 34,000 0,050 40,050 6,000 0,000 1,000 0,000 7,000 01/02/2021
ARJONA BERDUGO, MARIA ANGELES 6,000 0,000 34,000 0,000 40,000 6,000 0,000 6,000 0,000 12,000 01/02/2021
MOLEDO SANCHEZ, CRISTINA 6,000 0,000 34,000 0,000 40,000 6,000 0,000 1,500 0,000 7,500 01/02/2021
RODRIGUEZ DÍAZ, Mª LUISA 5,450 4,950 33,000 0,800 39,800 5,450 4,950 1,000 0,000 7,000 01/02/2021
JURADO ORTEGA, NIEVES 6,000 6,000 33,000 0,250 39,250 6,000 6,000 27,300 0,000 33,300 01/02/2021
GALAN CORDERO, CANDIDA 6,000 0,000 33,000 0,000 39,000 6,000 0,000 3,500 0,000 9,500 01/02/2021
RUZ VALENZUELA, JOSEFA 6,000 0,400 33,000 0,000 39,000 6,000 0,400 1,000 0,000 7,000 01/02/2021
TELLO GÓMEZ, CONCEPCIÓN 6,000 0,000 33,000 0,000 39,000 6,000 0,000 17,650 0,000 23,650 01/02/2021
ALONSO ERENAS, Mª ENCARNACIÓN 6,000 0,000 31,000 1,600 38,600 6,000 0,000 1,000 0,400 7,400 01/02/2021
URBANO LOPEZ, ARANZAZU 6,000 0,000 31,000 0,950 37,950 6,000 0,000 5,500 0,000 11,500 01/02/2021
ZAMORA PASADAS, MARTA 0,950 6,000 31,000 0,700 37,700 0,950 6,000 5,300 0,000 11,300 01/02/2021
LÓPEZ FERNÁNDEZ, ROSA 6,000 0,000 31,000 0,600 37,600 6,000 0,000 1,000 0,000 7,000 01/02/2021
SEGURA RIQUELME, FRANCISCO JOSE 6,000 0,000 31,000 0,550 37,550 6,000 0,000 4,150 0,000 10,150 01/02/2021
CERVANTES MARTINEZ, ANTONIA 6,000 0,000 31,000 0,425 37,425 6,000 0,000 1,000 0,000 7,000 01/02/2021
CRUZADO GARCIA, MARIA JESUS 6,000 0,000 31,000 0,400 37,400 6,000 0,000 4,750 0,000 10,750 01/02/2021
LUQUE MÁRQUEZ, MARÍA INMACULADA 6,000 0,000 31,000 0,400 37,400 6,000 0,000 16,100 0,100 22,200 01/02/2021
SANCHEZ MARTINEZ, MARIA ANGELES 6,000 0,000 31,000 0,400 37,400 6,000 0,000 16,750 0,100 22,850 01/02/2021
BELTRÁN TOMÁS, ELISA 6,000 0,000 31,000 0,300 37,300 6,000 0,000 13,500 0,000 19,500 01/02/2021
SANTOS DOMINGUEZ, MARIA PILAR 6,000 0,000 31,000 0,300 37,300 6,000 0,000 15,550 0,000 21,550 01/02/2021
FERNANDEZ BELTRAN, FRANCISCO JOSE 6,000 0,000 31,000 0,275 37,275 6,000 0,000 12,900 0,000 18,900 01/02/2021
GONZALEZ ALTIMIRA, ESTER MARIA 6,000 0,000 31,000 0,275 37,275 6,000 0,000 1,000 0,000 7,000 01/02/2021
HEREDIA BERCIANO, MONTSERRAT 6,000 2,050 31,000 0,100 37,100 6,000 0,000 9,750 0,000 15,750 01/02/2021
MARTIN MARTINEZ, ANTONIO MANUEL 6,000 2,700 31,000 0,075 37,075 6,000 2,700 10,750 0,000 16,750 01/02/2021
PINO SAEZ, ANA MARÍA 6,000 5,150 31,000 0,075 37,075 6,000 5,150 1,000 0,000 7,000 01/02/2021
A. M., MARIATE 6,000 0,250 31,000 0,000 37,000 6,000 0,250 31,000 0,000 37,000 01/02/2021
BARON CARRETERO, ANTONIO 6,000 0,000 31,000 0,000 37,000 6,000 0,000 1,000 0,000 7,000 01/02/2021
BARRANCO SANCHEZ, MARIA DEL CARMEN 6,000 0,000 31,000 0,000 37,000 6,000 0,000 1,700 0,000 7,700 01/02/2021
BERGILLOS AGUILAR, MARIA DOLORES 6,000 0,000 31,000 0,000 37,000 6,000 0,000 1,000 0,000 7,000 01/02/2021
CAMARGO GARCIA, MARGARITA 6,000 0,000 31,000 0,000 37,000 6,000 0,000 10,700 0,000 16,700 01/02/2021
CARRETERO GARCIA, ADORACION 6,000 5,100 31,000 0,000 37,000 6,000 5,100 1,000 0,000 7,000 01/02/2021
CONDE ANGUITA, MARIA AFRICA 6,000 0,000 31,000 0,000 37,000 6,000 0,000 9,750 0,000 15,750 01/02/2021
DOMÍNGUEZ FLORES, MARÍA CARMEN 6,000 0,000 31,000 0,000 37,000 6,000 0,000 1,000 0,000 7,000 01/02/2021
GOMEZ MORA, MARIA 6,000 0,000 31,000 0,000 37,000 6,000 0,000 6,700 0,000 12,700 01/02/2021
GONZALEZ MOLINA, ROSARIO 6,000 0,000 31,000 0,000 37,000 6,000 0,000 25,600 0,000 31,600 01/02/2021
IZQUIERDO GONZALEZ, MARIA JOSE 6,000 0,700 31,000 0,000 37,000 6,000 0,700 1,000 0,000 7,000 01/02/2021
LAVADO PADILLA, MARÍA DEL CARMEN 6,000 0,000 31,000 0,000 37,000 6,000 0,000 3,000 0,000 9,000 01/02/2021
LOJO LAVIS, CARLOS JAVIER 6,000 0,000 31,000 0,000 37,000 6,000 0,000 13,500 0,000 19,500 01/02/2021
LOPERA ZORRILLA, MILAGROS 6,000 0,150 31,000 0,000 37,000 6,000 0,000 1,000 0,000 7,000 01/02/2021
LOPEZ RINCON, MERCEDES 6,000 6,000 31,000 0,000 37,000 6,000 6,000 1,000 0,000 7,000 01/02/2021
MARTIN TORRES, MARIA LUISA 6,000 0,000 31,000 0,000 37,000 6,000 0,000 1,250 0,000 7,250 01/02/2021
MIRANDA GARCIA, JOSE 6,000 0,150 31,000 0,000 37,000 6,000 0,150 27,200 0,000 33,200 01/02/2021
MONTAÑO DIAZ, MARIA DEL ROCIO 6,000 0,000 31,000 0,000 37,000 6,000 0,000 1,000 0,000 7,000 01/02/2021
PADILLA MOYANO, SOLEDAD 6,000 0,000 31,000 0,000 37,000 6,000 0,000 1,000 0,000 7,000 01/02/2021
PEDREGOSA JIMÉNEZ, MARTÍN 6,000 0,350 31,000 0,000 37,000 6,000 0,000 23,800 0,000 29,800 01/02/2021
PEREZ RODA, MARIA DEL PILAR 6,000 0,000 31,000 0,000 37,000 6,000 0,000 1,500 0,000 7,500 01/02/2021
QUINTERO GOMEZ, FRANCISCO 6,000 0,000 31,000 0,000 37,000 6,000 0,000 22,950 0,000 28,950 01/02/2021
RAMÓN MEDINA, MªANGELES 6,000 0,000 31,000 0,000 37,000 6,000 0,000 2,500 0,000 8,500 01/02/2021
RODRIGUEZ ANTUNEZ, FRANCISCA 6,000 0,000 31,000 0,000 37,000 6,000 0,000 25,600 0,000 31,600 01/02/2021
RODRÍGUEZ COCHO, CLARA 6,000 0,000 31,000 0,000 37,000 6,000 0,000 8,500 0,000 14,500 01/02/2021
SANCHEZ LARQUE, ARACELI 6,000 0,000 31,000 0,000 37,000 6,000 0,000 11,500 0,000 17,500 01/02/2021
SANCHEZ PEREZ, MONTSERRAT 6,000 0,000 31,000 0,000 37,000 6,000 0,000 17,500 0,000 23,500 01/02/2021
SEDEÑO PELAEZ, MONTSERRAT 6,000 0,000 31,000 0,000 37,000 6,000 0,000 2,250 0,000 8,250 01/02/2021
ALONSO ALONSO, MARÍA ISABEL 6,000 2,700 30,400 0,150 36,550 6,000 2,700 1,500 0,000 7,500 01/02/2021
BORBALAN MAYORAL, FRANCISCO JAVIER 6,000 0,000 30,375 0,000 36,375 6,000 0,000 1,000 0,000 7,000 01/02/2021
SUAREZ FERNANDEZ, ANTONIO 6,000 0,000 29,750 0,000 35,750 6,000 0,000 9,750 0,000 15,750 01/02/2021
ORTIZ NÚÑEZ, MARÍA ISABEL 6,000 0,000 27,500 0,000 33,500 6,000 0,000 1,000 0,000 7,000 01/02/2021
CARRASCOSA MARTINEZ, MARIA SONIA 6,000 0,000 27,250 0,000 33,250 6,000 0,000 4,750 0,000 10,750 01/02/2021
GOMEZ AGUILA, EVA MARIA 6,000 0,000 25,600 0,000 31,600 6,000 0,000 9,350 0,000 15,350 01/02/2021
FERNANDEZ TRIVIÑO, RAQUEL MARIA 6,000 0,000 23,550 0,000 29,550 6,000 0,000 1,000 0,000 7,000 01/02/2021
ACEMEL ACEMEL, ANA MARIA 6,000 0,000 22,650 0,000 28,650 6,000 0,000 1,000 0,000 7,000 01/02/2021
VELEZ CAÑAS, MªDE LOS ANGELES 6,000 0,000 22,600 0,000 28,600 6,000 0,000 4,850 0,000 10,850 01/02/2021
LLANOS ORTEGA, ISABEL MARIA 6,000 0,150 21,675 0,400 28,075 6,000 0,150 1,000 0,000 7,000 01/02/2021
MORILLO MARTINEZ, MARIA CARMEN 6,000 0,000 21,000 0,000 27,000 6,000 0,000 3,500 0,000 9,500 01/02/2021
GOMEZ DEL POZO, INMACULADA 6,000 0,000 20,250 0,000 26,250 6,000 0,000 2,850 0,000 8,850 01/02/2021
GIL DEL VALLE, JOSEFA 6,000 0,000 20,000 0,000 26,000 6,000 0,000 2,250 0,000 8,250 01/02/2021
GONZALEZ JIMENEZ, ENCARNACION 6,000 0,000 19,300 0,000 25,300 6,000 0,000 6,200 0,000 12,200 01/02/2021
MORA FERNANDEZ, FERNANDO 6,000 0,000 18,150 0,000 24,150 6,000 0,000 4,750 0,000 10,750 01/02/2021
MARTINEZ ORTUÑO, MARIA TRINIDAD 6,000 0,000 16,000 0,000 22,000 6,000 0,000 16,000 0,000 22,000 01/02/2021
MORALES FUENTES, JUAN ANTONIO 6,000 0,000 16,000 0,000 22,000 6,000 0,000 1,000 0,000 7,000 01/02/2021
GONZALEZ CARO, EVA MARIA 6,000 0,000 15,050 0,000 21,050 6,000 0,000 1,000 0,000 7,000 01/02/2021
COBO ROMERO, MARÍA DOLORES 6,000 0,000 13,750 1,250 21,000 6,000 0,000 1,300 0,000 7,300 01/02/2021
PATRICOLO GOMEZ, SILVIA 6,000 0,000 14,750 0,000 20,750 6,000 0,000 6,000 0,000 12,000 01/02/2021
SALCEDO MUÑOZ, MARIA JOSE 6,000 0,000 14,450 0,000 20,450 6,000 0,000 3,500 0,000 9,500 01/02/2021
CALVENTE GARCIA, MARIA AUXILIADORA 6,000 0,000 14,250 0,000 20,250 6,000 0,000 8,550 0,000 14,550 01/02/2021
ROSAS HIDALGO, INMACULADA 6,000 0,000 14,000 0,000 20,000 6,000 0,000 1,000 0,000 7,000 01/02/2021
MORÁN LLULL, JOSEFA 6,000 0,000 13,850 0,000 19,850 6,000 0,000 3,750 0,000 9,750 01/02/2021
RODRIGUEZ PEREZ, SALVADORA 6,000 0,000 12,450 0,000 18,450 6,000 0,000 2,500 0,000 8,500 01/02/2021
GARCIA ORTEGA, MARIA ANGELES 6,000 0,000 11,750 0,300 18,050 6,000 0,000 4,000 0,000 10,000 01/02/2021
GARCIA CASTAÑO, ANA ROSA 6,000 0,000 12,000 0,000 18,000 6,000 0,000 1,000 0,000 7,000 01/02/2021
LOSILLA MALDONADO, AMELIA 6,000 0,000 11,000 0,000 17,000 6,000 0,000 1,000 0,000 7,000 01/02/2021
LUPIÓN GONZÁLEZ, LUIS GERMÁN 6,000 0,000 11,000 0,000 17,000 6,000 0,000 1,000 0,000 7,000 01/02/2021
CAMUÑEZ FONTECHA, Mª CARMEN 6,000 0,000 10,700 0,000 16,700 6,000 0,000 4,150 0,000 10,150 01/02/2021
JURADO JIMENEZ, ISABEL 6,000 0,000 10,000 0,000 16,000 6,000 0,000 10,000 0,000 16,000 01/02/2021
RUIZ ARAGON, TERESA 6,000 0,000 9,750 0,000 15,750 6,000 0,000 8,500 0,000 14,500 01/02/2021
SERRANO MORAN, MATILDE 6,000 0,000 9,300 0,100 15,400 6,000 0,000 1,000 0,000 7,000 01/02/2021
SIMON SIMON, CATALINA MARIA 6,000 0,000 8,300 0,000 14,300 6,000 0,000 8,300 0,000 14,300 01/02/2021
GOMEZ REINA, AUXILIADORA 6,000 0,000 6,750 0,000 12,750 6,000 0,000 6,750 0,000 12,750 01/02/2021
DEL MORAL CHANETA, M VICTORIA 6,000 0,000 5,750 0,000 11,750 6,000 0,000 3,950 0,000 9,950 01/02/2021
SERRANO MEJIAS, FELISA 6,000 3,950 5,500 0,000 11,500 6,000 3,950 3,500 0,000 9,500 01/02/2021
MIRAS GARCIA, JUAN MANUEL 6,000 0,000 4,500 0,000 10,500 6,000 0,000 1,000 0,000 7,000 01/02/2021
ALVAREZ SAEZ, ISABEL 6,000 0,000 4,000 0,000 10,000 6,000 0,000 1,000 0,000 7,000 01/02/2021
SAEZ LOPEZ DE LERMA, MARIA DEL PILAR 6,000 0,000 3,175 0,000 9,175 6,000 0,000 1,000 0,000 7,000 01/02/2021
FERNÁNDEZ ARJONA, JUAN 6,000 0,000 3,100 0,000 9,100 6,000 0,000 3,100 0,000 9,100 01/02/2021
PEREJON SANCHEZ, NIEVES 6,000 0,000 1,525 0,000 7,525 6,000 0,000 1,000 0,000 7,000 01/02/2021
MEDINA RODRIGUEZ, MARIA JOSE 6,000 0,000 1,400 0,000 7,400 6,000 0,000 1,000 0,000 7,000 01/02/2021
MARTIN PALOS, INMACULADA 6,000 0,000 1,025 0,000 7,025 6,000 0,000 1,000 0,000 7,000 01/02/2021
CARO CARO, JOSEFA 6,000 0,100 1,000 0,000 7,000 6,000 0,000 1,000 0,000 7,000 01/02/2021
CARRION DIAZ, MARIA ARANZAZU 6,000 0,000 1,000 0,000 7,000 6,000 0,000 1,000 0,000 7,000 01/02/2021
CUESTA MELERO, ANA 6,000 2,050 1,000 0,000 7,000 6,000 0,000 1,000 0,000 7,000 01/02/2021
DONADO GOMEZ, M DOLORES 6,000 0,000 1,000 0,000 7,000 6,000 0,000 1,000 0,000 7,000 01/02/2021
FERNANDEZ GUTIERREZ, ELOISA MARIA 6,000 0,000 1,000 0,000 7,000 6,000 0,000 1,000 0,000 7,000 01/02/2021
FERNANDEZ TORREMOCHA, JOSEFA 6,000 0,000 1,000 0,000 7,000 6,000 0,000 1,000 0,000 7,000 01/02/2021
GALISTEO ROSA, AGUEDA 6,000 0,000 1,000 0,000 7,000 6,000 0,000 1,000 0,000 7,000 01/02/2021
GAMARRO JIMENEZ, MARIA ANTONIA 6,000 0,000 1,000 0,000 7,000 6,000 0,000 1,000 0,000 7,000 01/02/2021
GARCIA MORENO, MARGARITA 6,000 0,000 1,000 0,000 7,000 6,000 0,000 1,000 0,000 7,000 01/02/2021
GIL HERMOSO, Mª DE LOS REMEDIOS 6,000 0,050 1,000 0,000 7,000 6,000 0,000 1,000 0,000 7,000 01/02/2021
GÓMEZ GARCÍA, JOSEFA MARÍA 6,000 0,000 1,000 0,000 7,000 6,000 0,000 1,000 0,000 7,000 01/02/2021
GOMEZ GARCIA, JUANA INMACULADA 6,000 0,000 1,000 0,000 7,000 6,000 0,000 1,000 0,000 7,000 01/02/2021
GORDILLO LOPEZ, JOSE MANUEL 6,000 0,000 1,000 0,000 7,000 6,000 0,000 1,000 0,000 7,000 01/02/2021
LLAMAS MORENO, JOSEFA 6,000 0,000 1,000 0,000 7,000 6,000 0,000 1,000 0,000 7,000 01/02/2021
LOPEZ GUERRERO, MARIA DEL CARMEN 6,000 0,000 1,000 0,000 7,000 6,000 0,000 1,000 0,000 7,000 01/02/2021
MARTINEZ MOLINA, MARGARITA 6,000 0,000 1,000 0,000 7,000 6,000 0,000 1,000 0,000 7,000 01/02/2021
MEZCUA RODRIGUEZ, ENCARNACION 6,000 0,000 1,000 0,000 7,000 6,000 0,000 1,000 0,000 7,000 01/02/2021
MUÑOZ RODRIGUEZ, Mª DOLORES 6,000 0,000 1,000 0,000 7,000 6,000 0,000 1,000 0,000 7,000 01/02/2021
NAVAS MARIN, ISABEL 6,000 0,150 1,000 0,000 7,000 6,000 0,000 1,000 0,000 7,000 01/02/2021
PARDO RODRIGUEZ, BLAS 6,000 0,000 1,000 0,000 7,000 6,000 0,000 1,000 0,000 7,000 01/02/2021
PAZ CASTRO, ISABEL 6,000 0,000 1,000 0,000 7,000 6,000 0,000 1,000 0,000 7,000 01/02/2021
PEDRAZA BENITEZ, MARIA JOSE 6,000 0,000 1,000 0,000 7,000 6,000 0,000 1,000 0,000 7,000 01/02/2021
RAMIREZ BERNAL, JOSE JUAN 6,000 0,000 1,000 0,000 7,000 6,000 0,000 1,000 0,000 7,000 01/02/2021
REYES GÓMEZ, M.DEL CARMEN 6,000 0,000 1,000 0,000 7,000 6,000 0,000 1,000 0,000 7,000 01/02/2021
ROJAS GALLARDO, ANA MARIA 6,000 0,000 1,000 0,000 7,000 6,000 0,000 1,000 0,000 7,000 01/02/2021
ROMERO LÓPEZ-CEPERO, CORNELIA ISABEL 6,000 0,000 1,000 0,000 7,000 6,000 0,000 1,000 0,000 7,000 01/02/2021
ROMERO LOPEZ-CEPERO, SILVIA 6,000 0,000 1,000 0,000 7,000 6,000 0,000 1,000 0,000 7,000 01/02/2021
ROMERO MENA, MANUEL 6,000 0,000 1,000 0,000 7,000 6,000 0,000 1,000 0,000 7,000 01/02/2021


Color de candidatos/as que por autobaremo alcanzan puntuación mínima para formar parte de la bolsa Candidatos/as que por autobaremo alcanzan puntuación mínima para formar parte de la bolsa

Color de Candidatos/as que no alcanzan puntuación mínima para formar parte de la bolsa Candidatos/as que no alcanzan puntuación mínima para formar parte de la bolsa



[Volver]